Hendersonville, TN

10:17 PM CST on December 07, 2016 (GMT -0600)
Braxton Lane East @37075weather | | Change Station

Elev 610 ft 36.32 °N, 86.64 °W | Updated 9 seconds ago

Overcast
Overcast
38.5 °F
Feels Like 38 °F
N
1.6
Wind Variable Wind from West
Gusts 4.5 mph

Today
High -- | Low -- °F
--% Chance of Precip.
Yesterday
High -- | Low -- °F
Precip. -- in
Pressure 30.22 in
Visibility 10.0 miles
Clouds Overcast 11000 ft
Windchill 38 °F
Dew Point 26 °F
Humidity 60%
Rainfall 0.00 in
Snow Depth Not available.
6:44 AM 4:31 PM
First Quarter, 59% visible
METAR KBNA 080353Z 35008KT 10SM OVC110 04/M04 A3021 RMK AO2 SLP234 T00441039
Pressure 30.22 in
Visibility 10.0 miles
Clouds Overcast 11000 ft
Windchill 38 °F
Dew Point 26 °F
Humidity 60%
Rainfall 0.00 in
Snow Depth Not available.
6:44 AM 4:31 PM
First Quarter, 59% visible
METAR KBNA 080353Z 35008KT 10SM OVC110 04/M04 A3021 RMK AO2 SLP234 T00441039

10-Day Weather Forecast

Almanac

Astronomy

Dec. 07, 2016 Rise Set
Actual Time
Civil Twilight
Nautical Twilight
Astronomical Twilight
Moon
Length of Visible Light
Length of Day
Tomorrow will be .
, % of the Moon is Illuminated

Today's Extremes

State Highs State Lows

Community

WunderPhotos

Upload Photos

1,956,259 photos uploaded!

WunderBlog® & News

Nearby

Air Quality

  Air Quality AQ Index Pollutant
Not available.

Snow Depth

Station Depth Elevation

Earthquake Activity

City Distance Mag. Time & Date
Minimum magnitude displayed is 2.5.

Coastal Water Temperatures

Place Temperature

Stations

Nearby Weather Stations

Station Location Temp. Windchill Dew Point Humidity Wind Precip. Elev Updated Type
                   

Watches & Warnings

There are currently no watches in effect.